x

Powell River Airport (71208) Weather Station

7:00pm - Sun 19th Oct 2014 All times are PDT. -7 hours from GMT.

  • Wind
    7mph
  • 空気 Temp 57°f
  • Sea Pressure 1003.7mb
  • Powell River Airport
  • Powell River Airport

More Historic Weather Station data

Upgrade to MSW Pro to gain access to the past 30 days of data for over 8000 Wavebouys and Weather Stations around the globe.

Join Pro

Comparision Forecast

View Surf forecast
   
Sun 10/19 7:00pm 7
mph
1003.7mb 57f
6:12pm 9
mph
1003.4mb 57f
6:00pm 6
mph
1003.4mb 57f
5:24pm 15 24 mph 1003.1mb 59f
5:10pm 13 24 mph 1002.7mb 59f
5:00pm 15 31 mph 1002.7mb 59f
4:55pm 17 31 mph 1002.4mb 61f
4:00pm 13 22 mph 1001.7mb 63f
3:00pm 16 28 mph 1001mb 61f
2:00pm 21 30 mph 1001.7mb 61f
1:50pm 18 29 mph 1001.4mb 61f
1:00pm 20 31 mph 1001.7mb 61f
12:00pm 17 30 mph 1003.1mb 59f
11:00am 20 38 mph 1002.4mb 59f
10:10am 15 29 mph 1002.7mb 57f
10:00am 18 27 mph 1002.7mb 57f
9:00am 15 23 mph 1002.7mb 57f
8:00am 16 24 mph 1002.7mb 57f
7:00am 15 23 mph 1003.7mb 57f
6:00am 14 23 mph 1004.4mb 57f
Sat 10/18 7:00pm 12 21 mph 1010.5mb 57f
6:00pm 16 28 mph 1010.8mb 59f
5:47pm 13 24 mph 1010.8mb 57f
5:00pm 12 24 mph 1011.5mb 57f
4:00pm 6
mph
1011.9mb 57f
3:00pm 14 23 mph 1011.9mb 59f
2:00pm 17 24 mph 1011.9mb 59f
1:53pm 16 25 mph 1011.9mb 59f
1:00pm 16 29 mph 1011.5mb 59f
12:00pm 15 32 mph 1011.2mb 61f
11:11am 22 30 mph 1010.8mb 59f
11:00am 20 30 mph 1010.8mb 57f
10:18am 12 25 mph 1010.5mb 57f
10:06am 15 25 mph 1010.5mb 57f
10:00am 13 25 mph 1010.5mb 55f
9:26am 14 21 mph 1010.2mb 55f
9:24am 16
mph
1010.2mb 55f
9:00am 12 17 mph 1009.8mb 55f
8:16am 14 23 mph 1009.8mb 55f
8:00am 13 18 mph 1009.8mb 55f
7:00am 13 23 mph 1009.8mb 55f
6:00am 8 20 mph 1009.8mb 55f
Fri 10/17 7:00pm 20 31 mph 1003.7mb 55f
6:04pm 17 37 mph 1003.1mb 57f
6:00pm 20 37 mph 1003.1mb 57f
5:03pm 15 35 mph 1002.7mb 55f
5:00pm 15 35 mph 1002.7mb 55f
4:00pm 16 24 mph 1002.7mb 54f
3:00pm 14 23 mph 1002.7mb 54f
2:25pm 15 23 mph 1002.7mb 54f
2:00pm 13 23 mph 1003.1mb 54f
1:00pm 13 23 mph 1003.4mb 54f
12:00pm 14 23 mph 1003.4mb 54f
11:00am 16 24 mph 1004.1mb 54f
10:00am 16 27 mph 1004.7mb 54f
9:00am 10 18 mph 1005.8mb 52f
8:00am 9
mph
1005.8mb 52f
7:00am 9
mph
1006.1mb 52f
6:00am 9
mph
1006.1mb 52f
Thu 10/16 7:00pm 9
mph
1011.2mb 57f
6:48pm 9
mph
1011.5mb 57f
6:00pm 10 18 mph 1012.2mb 55f
5:00pm 13 20 mph 1012.5mb 55f
4:06pm 12 29 mph 1012.9mb 57f
4:00pm 16 29 mph 1012.9mb 57f
3:00pm 14 23 mph 1013.5mb 55f
2:45pm 14 27 mph 1013.5mb 55f
2:00pm 15 23 mph 1013.9mb 54f
1:00pm 14 27 mph 1014.9mb 55f
12:57pm 18 27 mph 1014.9mb 55f